Time;durP1;ratioP1;P1;durP2;ratioP2;P2;SDS_P1;SDS_P2;PMS_P1;PMS_P2;Temp;Humidity;BMP_temperature;BMP_pressure;BME280_temperature;BME280_humidity;BME280_pressure;Samples;Min_cycle;Max_cycle;Signal;HPM_P1;HPM_P2
2021/09/18 00:00:24;;;;;;;37.42;23.05;;;14.60;99.90;;;;;;4955975;29;20215;-96
2021/09/18 00:02:49;;;;;;;35.88;21.83;;;14.70;99.90;;;;;;4939643;29;20245;-95
2021/09/18 00:05:16;;;;;;;33.47;21.17;;;;;;;;;;4956837;29;20722;-96
2021/09/18 00:07:41;;;;;;;31.83;20.90;;;14.70;99.90;;;;;;4943933;29;20187;-93
2021/09/18 00:10:07;;;;;;;35.55;23.23;;;14.70;99.90;;;;;;4943139;29;20283;-94
2021/09/18 00:12:33;;;;;;;38.10;22.92;;;14.60;99.90;;;;;;4958878;29;20187;-94
2021/09/18 00:15:01;;;;;;;39.05;22.83;;;;;;;;;;4942841;29;20230;-93
2021/09/18 00:17:28;;;;;;;37.15;23.33;;;14.60;99.90;;;;;;4974507;28;20187;-93
2021/09/18 00:19:53;;;;;;;37.13;21.40;;;14.60;99.90;;;;;;4942878;29;20234;-95
2021/09/18 00:22:19;;;;;;;30.60;20.13;;;14.60;99.90;;;;;;4960051;29;20187;-93
2021/09/18 00:24:45;;;;;;;32.03;20.02;;;14.60;99.90;;;;;;4958594;29;20558;-93
2021/09/18 00:27:10;;;;;;;32.15;20.65;;;14.60;99.90;;;;;;4942396;29;20695;-94
2021/09/18 00:29:37;;;;;;;33.28;19.15;;;;;;;;;;4959187;29;20183;-93
2021/09/18 00:32:03;;;;;;;29.48;19.25;;;14.50;99.90;;;;;;4974660;28;20547;-92
2021/09/18 00:34:29;;;;;;;28.88;18.02;;;14.50;99.90;;;;;;4941995;29;20211;-92
2021/09/18 00:36:55;;;;;;;32.08;18.77;;;;;;;;;;4943870;29;20218;-95
2021/09/18 00:39:21;;;;;;;26.50;17.67;;;14.50;99.90;;;;;;4974101;28;20215;-93
2021/09/18 00:41:47;;;;;;;33.25;19.67;;;14.50;99.90;;;;;;4959267;29;20254;-96
2021/09/18 00:44:20;;;;;;;33.75;20.92;;;14.50;99.90;;;;;;4959904;29;20176;-96
2021/09/18 00:46:52;;;;;;;26.73;18.15;;;14.50;99.90;;;;;;4943597;29;20551;-96
2021/09/18 00:49:19;;;;;;;28.40;17.88;;;14.50;99.90;;;;;;4960250;29;20628;-96
2021/09/18 00:51:45;;;;;;;27.25;17.55;;;14.50;99.90;;;;;;4958512;29;20179;-96
2021/09/18 00:54:13;;;;;;;29.33;17.98;;;14.50;99.90;;;;;;4942647;29;20191;-96
2021/09/18 00:56:40;;;;;;;31.75;21.13;;;14.50;99.90;;;;;;4959335;29;20210;-95
2021/09/18 00:59:05;;;;;;;30.55;19.25;;;14.60;99.90;;;;;;4958378;29;20676;-95
2021/09/18 01:01:31;;;;;;;30.25;19.35;;;14.50;99.90;;;;;;4941808;29;20194;-95
2021/09/18 01:03:59;;;;;;;30.92;19.58;;;14.50;99.90;;;;;;4974479;28;20184;-95
2021/09/18 01:06:27;;;;;;;28.50;18.48;;;14.40;99.90;;;;;;4958110;29;20278;-96
2021/09/18 01:08:55;;;;;;;32.78;19.73;;;14.50;99.90;;;;;;4958141;29;20183;-96
2021/09/18 01:11:22;;;;;;;28.90;19.15;;;14.50;99.90;;;;;;4958058;29;20190;-95
2021/09/18 01:13:48;;;;;;;38.20;20.20;;;14.40;99.90;;;;;;4959241;29;20195;-96
2021/09/18 01:16:14;;;;;;;33.35;19.20;;;;;;;;;;4957740;29;20231;-96
2021/09/18 01:18:39;;;;;;;18.70;13.13;;;14.50;99.90;;;;;;4972869;28;20215;-95
2021/09/18 01:21:06;;;;;;;16.52;11.48;;;;;;;;;;4942038;29;20707;-95
2021/09/18 01:23:31;;;;;;;13.52;8.82;;;14.40;99.90;;;;;;4957852;29;20183;-95
2021/09/18 01:25:57;;;;;;;8.25;6.20;;;14.30;99.90;;;;;;4941820;29;20225;-96
2021/09/18 01:28:24;;;;;;;10.60;5.80;;;;;;;;;;4941713;29;20186;-95
2021/09/18 01:30:51;;;;;;;7.82;5.50;;;14.20;99.90;;;;;;4973595;28;20190;-96
2021/09/18 01:33:16;;;;;;;7.18;4.95;;;14.20;99.90;;;;;;4957631;29;20179;-96
2021/09/18 01:35:43;;;;;;;6.15;4.78;;;14.10;99.90;;;;;;4957188;29;20175;-96
2021/09/18 01:38:09;;;;;;;7.20;4.78;;;14.10;99.90;;;;;;4973406;28;20246;-95
2021/09/18 01:40:41;;;;;;;9.60;5.28;;;14.10;99.90;;;;;;4941060;29;20664;-95
2021/09/18 01:43:08;;;;;;;5.43;4.40;;;14.00;99.90;;;;;;4957188;29;20191;-95
2021/09/18 01:45:34;;;;;;;5.65;4.60;;;14.00;99.90;;;;;;4956619;29;20186;-95
2021/09/18 01:48:03;;;;;;;6.15;4.75;;;14.00;99.90;;;;;;4957048;29;20188;-94
2021/09/18 01:50:47;;;;;;;6.28;4.22;;;14.00;99.90;;;;;;4956946;29;20202;-92
2021/09/18 01:53:14;;;;;;;4.97;4.28;;;14.00;99.90;;;;;;4956808;29;20175;-93
2021/09/18 01:55:40;;;;;;;5.43;4.38;;;14.00;99.90;;;;;;4956419;29;20180;-92
2021/09/18 01:58:06;;;;;;;5.05;4.00;;;14.00;99.90;;;;;;4964063;29;20187;-95
2021/09/18 02:00:36;;;;;;;5.38;4.18;;;13.90;99.90;;;;;;4968527;29;20214;-93
2021/09/18 02:03:01;;;;;;;4.78;3.90;;;13.90;99.90;;;;;;4962589;29;20179;-95
2021/09/18 02:05:27;;;;;;;5.60;4.53;;;;;;;;;;4962702;29;20190;-91
2021/09/18 02:07:55;;;;;;;5.47;4.25;;;13.90;99.90;;;;;;4978801;28;20163;-94
2021/09/18 02:10:23;;;;;;;4.55;4.03;;;13.80;99.90;;;;;;4955105;29;20195;-96
2021/09/18 02:12:49;;;;;;;4.95;4.10;;;13.90;99.90;;;;;;4957941;29;20258;-94
2021/09/18 02:15:16;;;;;;;5.32;4.30;;;13.80;99.90;;;;;;4958132;29;20318;-94
2021/09/18 02:17:43;;;;;;;4.75;4.22;;;13.80;99.90;;;;;;4957928;29;20179;-94
2021/09/18 02:20:11;;;;;;;5.57;4.25;;;13.80;99.90;;;;;;4956735;29;20210;-95
2021/09/18 02:22:38;;;;;;;5.68;4.35;;;13.80;99.90;;;;;;4957127;29;20250;-93
2021/09/18 02:25:05;;;;;;;4.78;3.90;;;13.80;99.90;;;;;;4956703;29;20188;-94
2021/09/18 02:27:31;;;;;;;4.57;3.95;;;13.80;99.90;;;;;;4956395;29;20640;-90
2021/09/18 02:29:57;;;;;;;4.65;3.40;;;13.80;99.90;;;;;;4958352;28;20198;-95
2021/09/18 02:32:23;;;;;;;6.20;4.10;;;;;;;;;;4960691;29;20179;-95
2021/09/18 02:34:49;;;;;;;4.32;3.72;;;13.80;99.90;;;;;;4960498;29;20203;-96
2021/09/18 02:37:15;;;;;;;7.03;4.03;;;13.80;99.90;;;;;;4958553;29;20217;-96
2021/09/18 02:39:40;;;;;;;6.68;3.90;;;13.70;99.90;;;;;;4973786;28;20282;-95
2021/09/18 02:42:07;;;;;;;6.32;4.07;;;;;;;;;;4953324;28;20183;-95
2021/09/18 02:44:32;;;;;;;4.90;4.05;;;13.70;99.90;;;;;;4996029;28;20163;-90
2021/09/18 02:46:58;;;;;;;5.65;4.38;;;13.80;99.90;;;;;;4980490;28;20163;-94
2021/09/18 02:49:24;;;;;;;5.07;3.90;;;13.50;99.90;;;;;;4971602;28;20266;-96
2021/09/18 02:51:49;;;;;;;4.80;3.90;;;13.70;99.90;;;;;;4965120;29;20203;-95
2021/09/18 02:54:16;;;;;;;8.07;3.55;;;;;;;;;;4949709;29;20636;-96
2021/09/18 02:56:42;;;;;;;4.25;3.70;;;13.70;99.90;;;;;;4961101;29;20632;-95
2021/09/18 02:59:09;;;;;;;5.30;3.88;;;13.70;99.90;;;;;;4958670;29;20207;-96
2021/09/18 03:01:35;;;;;;;5.88;3.65;;;13.70;99.90;;;;;;4940702;29;20187;-92
2021/09/18 03:04:01;;;;;;;4.72;3.78;;;13.70;99.90;;;;;;4961152;29;20278;-95
2021/09/18 03:06:27;;;;;;;4.70;3.47;;;;;;;;;;4955929;29;20772;-94
2021/09/18 03:08:52;;;;;;;4.45;3.38;;;13.70;99.90;;;;;;4955396;29;20184;-94
2021/09/18 03:11:18;;;;;;;4.50;3.55;;;13.70;99.90;;;;;;4939950;29;20651;-96
2021/09/18 03:13:44;;;;;;;7.00;3.60;;;13.70;99.90;;;;;;4955637;29;20187;-95
2021/09/18 03:16:09;;;;;;;5.28;3.60;;;13.70;99.90;;;;;;4956091;28;20235;-95
2021/09/18 03:18:36;;;;;;;4.15;3.15;;;;;;;;;;4971132;28;20201;-89
2021/09/18 03:21:01;;;;;;;5.20;3.20;;;13.70;99.90;;;;;;4956491;29;20186;-94
2021/09/18 03:23:27;;;;;;;4.13;3.58;;;13.70;99.90;;;;;;4955712;29;20548;-93
2021/09/18 03:25:53;;;;;;;4.45;3.20;;;13.70;99.90;;;;;;4955776;29;20176;-91
2021/09/18 03:28:19;;;;;;;4.68;3.58;;;13.70;99.90;;;;;;4955848;29;20186;-92
2021/09/18 03:30:45;;;;;;;4.05;3.45;;;;;;;;;;4955734;29;20638;-92
2021/09/18 03:33:10;;;;;;;5.55;3.50;;;13.70;99.90;;;;;;4955108;29;20179;-92
2021/09/18 03:35:36;;;;;;;4.70;3.15;;;;;;;;;;4954804;29;20289;-93
2021/09/18 03:38:03;;;;;;;5.13;3.72;;;13.70;99.90;;;;;;4956058;29;20179;-92
2021/09/18 03:40:28;;;;;;;3.75;3.13;;;13.70;99.90;;;;;;4970667;28;20215;-92
2021/09/18 03:42:55;;;;;;;4.43;3.03;;;;;;;;;;4954218;29;20183;-92
2021/09/18 03:45:20;;;;;;;5.68;2.92;;;13.60;99.90;;;;;;4939020;29;20190;-91
2021/09/18 03:47:47;;;;;;;4.35;3.45;;;13.60;99.90;;;;;;4955279;29;20184;-93
2021/09/18 03:50:12;;;;;;;3.35;2.83;;;13.60;99.90;;;;;;4954922;29;20179;-93
2021/09/18 03:52:38;;;;;;;4.65;3.30;;;;;;;;;;4954337;29;20637;-92
2021/09/18 03:55:06;;;;;;;3.33;2.83;;;13.60;99.90;;;;;;4971250;28;20175;-93
2021/09/18 03:57:32;;;;;;;4.75;3.38;;;13.60;99.90;;;;;;4955907;29;20215;-92
2021/09/18 03:59:57;;;;;;;4.68;3.58;;;13.60;99.90;;;;;;4955281;29;20199;-92
2021/09/18 04:02:23;;;;;;;4.30;3.53;;;13.60;99.90;;;;;;4954695;29;20176;-92
2021/09/18 04:04:49;;;;;;;4.72;3.60;;;;;;;;;;4954207;29;20633;-92
2021/09/18 04:07:15;;;;;;;3.88;3.47;;;13.60;99.90;;;;;;4970623;28;20187;-93
2021/09/18 04:09:40;;;;;;;3.80;3.40;;;13.60;99.90;;;;;;4954433;29;20252;-89
2021/09/18 04:12:06;;;;;;;5.53;3.47;;;13.60;99.90;;;;;;4955423;29;20587;-93
2021/09/18 04:14:32;;;;;;;8.38;3.72;;;;;;;;;;4938842;29;20179;-92
2021/09/18 04:16:58;;;;;;;5.22;3.33;;;13.60;99.90;;;;;;4938064;29;20285;-93
2021/09/18 04:19:24;;;;;;;6.22;3.35;;;;;;;;;;4923161;29;20222;-94
2021/09/18 04:21:50;;;;;;;4.68;3.60;;;13.60;99.90;;;;;;4955392;29;20186;-93
2021/09/18 04:24:15;;;;;;;4.72;4.10;;;13.60;99.90;;;;;;4955557;29;20183;-93
2021/09/18 04:26:41;;;;;;;3.72;3.33;;;;;;;;;;4955574;29;20184;-92
2021/09/18 04:29:07;;;;;;;4.32;3.53;;;13.60;99.90;;;;;;4970456;28;20195;-92
2021/09/18 04:31:33;;;;;;;5.30;4.03;;;;;;;;;;4938529;29;20250;-93
2021/09/18 04:33:59;;;;;;;6.25;3.72;;;13.60;99.90;;;;;;4955180;29;20258;-92
2021/09/18 04:36:25;;;;;;;7.13;4.03;;;;;;;;;;4955462;29;20267;-92
2021/09/18 04:38:51;;;;;;;7.68;3.85;;;13.60;99.90;;;;;;4969714;28;20194;-92
2021/09/18 04:41:16;;;;;;;4.45;3.97;;;13.60;99.90;;;;;;4938297;29;20278;-92
2021/09/18 04:43:43;;;;;;;5.20;3.95;;;;;;;;;;4938507;29;20183;-91
2021/09/18 04:46:09;;;;;;;5.00;4.00;;;13.70;99.90;;;;;;4954937;29;20179;-93
2021/09/18 04:48:35;;;;;;;5.45;4.30;;;;;;;;;;4938069;29;20608;-92
2021/09/18 04:51:01;;;;;;;5.55;4.63;;;13.70;99.90;;;;;;4955271;29;20180;-92
2021/09/18 04:53:27;;;;;;;6.25;4.95;;;13.70;99.90;;;;;;4956006;28;20186;-93
2021/09/18 04:55:53;;;;;;;8.45;5.20;;;;;;;;;;4957088;29;20184;-91
2021/09/18 04:58:19;;;;;;;7.22;5.22;;;13.70;99.90;;;;;;4941559;29;20238;-91
2021/09/18 05:00:45;;;;;;;5.40;4.90;;;13.70;99.90;;;;;;4941313;29;20211;-90
2021/09/18 05:03:10;;;;;;;6.15;4.80;;;13.70;99.90;;;;;;4941134;29;20187;-91
2021/09/18 05:05:36;;;;;;;6.82;4.82;;;;;;;;;;4958480;29;20506;-91
2021/09/18 05:08:04;;;;;;;5.57;4.47;;;13.70;99.90;;;;;;4954923;29;20258;-92
2021/09/18 05:10:30;;;;;;;6.53;4.70;;;13.70;99.90;;;;;;4947008;29;20186;-91
2021/09/18 05:12:55;;;;;;;9.18;5.80;;;13.70;99.90;;;;;;4947778;29;20192;-91
2021/09/18 05:15:21;;;;;;;7.28;5.65;;;;;;;;;;4939837;29;20231;-91
2021/09/18 05:17:47;;;;;;;6.40;5.30;;;13.70;99.90;;;;;;4948889;29;20286;-89
2021/09/18 05:20:13;;;;;;;5.97;4.95;;;14.10;99.90;;;;;;4955382;29;20740;-92
2021/09/18 05:22:39;;;;;;;6.35;4.68;;;13.80;99.90;;;;;;4953739;29;20262;-92
2021/09/18 05:25:06;;;;;;;7.30;5.45;;;13.80;99.90;;;;;;4934798;29;20291;-92
2021/09/18 05:27:32;;;;;;;9.52;4.80;;;13.80;99.90;;;;;;4954615;29;20179;-91
2021/09/18 05:29:58;;;;;;;7.40;4.25;;;13.80;99.90;;;;;;4951704;29;20187;-91
2021/09/18 05:32:24;;;;;;;7.53;4.30;;;;;;;;;;4956483;29;20179;-91
2021/09/18 05:34:49;;;;;;;6.20;4.82;;;13.80;99.90;;;;;;4949840;29;20187;-89
2021/09/18 05:37:15;;;;;;;5.72;3.60;;;;;;;;;;4939933;29;20679;-91
2021/09/18 05:39:41;;;;;;;6.53;5.35;;;13.80;99.90;;;;;;4949029;29;20219;-90
2021/09/18 05:42:08;;;;;;;5.28;4.13;;;13.80;99.90;;;;;;4967190;29;20179;-90
2021/09/18 05:44:34;;;;;;;6.00;3.72;;;13.80;99.90;;;;;;4959221;29;20195;-89
2021/09/18 05:47:00;;;;;;;6.30;3.67;;;13.80;99.90;;;;;;4955126;29;20218;-90
2021/09/18 05:49:26;;;;;;;4.13;3.47;;;;;;;;;;4938986;29;20195;-91
2021/09/18 05:51:51;;;;;;;4.68;3.85;;;13.80;99.90;;;;;;4967409;29;20528;-88
2021/09/18 05:54:17;;;;;;;5.10;4.13;;;;;;;;;;4966299;29;20206;-89
2021/09/18 05:56:43;;;;;;;6.88;5.07;;;13.80;99.90;;;;;;4934415;29;20261;-90
2021/09/18 05:59:09;;;;;;;5.97;4.68;;;;;;;;;;4954878;28;20544;-90
2021/09/18 06:01:35;;;;;;;2.70;2.50;;;13.90;99.90;;;;;;4952130;29;20187;-90
2021/09/18 06:04:00;;;;;;;2.47;2.28;;;13.80;99.90;;;;;;4946007;29;20183;-89
2021/09/18 06:06:28;;;;;;;3.00;2.42;;;13.60;99.90;;;;;;4936064;29;20216;-91
2021/09/18 06:08:53;;;;;;;2.47;2.20;;;13.50;99.90;;;;;;4981874;28;20164;-91
2021/09/18 06:11:19;;;;;;;6.20;3.60;;;13.40;99.90;;;;;;5069774;23;20666;-90
2021/09/18 06:13:45;;;;;;;3.67;2.42;;;;;;;;;;4963657;23;20274;-90
2021/09/18 06:16:11;;;;;;;4.40;3.22;;;13.40;99.90;;;;;;4944413;29;20574;-89
2021/09/18 06:18:37;;;;;;;5.45;4.20;;;13.40;99.90;;;;;;4950483;29;20243;-90
2021/09/18 06:21:04;;;;;;;7.28;4.38;;;;;;;;;;4945651;29;20216;-90
2021/09/18 06:23:30;;;;;;;5.43;4.38;;;13.40;99.90;;;;;;4946313;29;20183;-91
2021/09/18 06:25:56;;;;;;;7.88;5.57;;;13.30;99.90;;;;;;4935967;29;20191;-90
2021/09/18 06:28:21;;;;;;;5.25;3.70;;;13.40;99.90;;;;;;4934482;29;20252;-92
2021/09/18 06:30:48;;;;;;;3.28;2.55;;;;;;;;;;4937712;29;20713;-92
2021/09/18 06:33:13;;;;;;;3.35;3.05;;;13.40;99.90;;;;;;4925092;29;20227;-89
2021/09/18 06:35:39;;;;;;;5.25;2.80;;;13.30;99.90;;;;;;4934363;29;20188;-90
2021/09/18 06:38:05;;;;;;;4.15;3.13;;;13.30;99.90;;;;;;4939830;29;20192;-91
2021/09/18 06:40:30;;;;;;;3.67;2.83;;;13.30;99.90;;;;;;4928664;29;20716;-91
2021/09/18 06:42:56;;;;;;;5.30;4.00;;;;;;;;;;4939371;29;20188;-89
2021/09/18 06:45:22;;;;;;;5.80;4.25;;;13.40;99.90;;;;;;4945960;29;20194;-92
2021/09/18 06:47:48;;;;;;;7.20;5.43;;;;;;;;;;4940758;29;20220;-93
2021/09/18 06:50:14;;;;;;;8.65;6.10;;;13.30;99.90;;;;;;4957483;29;20233;-92
2021/09/18 06:52:40;;;;;;;10.25;6.80;;;13.30;99.90;;;;;;4945613;29;20180;-90
2021/09/18 06:55:07;;;;;;;15.27;7.30;;;13.30;99.90;;;;;;4943253;29;20207;-88
2021/09/18 06:57:34;;;;;;;13.70;7.40;;;13.30;99.90;;;;;;4933327;29;20208;-87
2021/09/18 07:00:01;;;;;;;9.23;6.82;;;13.30;99.90;;;;;;4919435;29;20693;-89
2021/09/18 07:02:27;;;;;;;10.93;5.75;;;13.30;99.90;;;;;;4924223;29;20181;-89
2021/09/18 07:04:53;;;;;;;8.45;6.00;;;13.30;99.90;;;;;;4924978;29;20226;-89
2021/09/18 07:07:18;;;;;;;9.80;5.97;;;13.30;99.90;;;;;;4923723;29;20256;-90
2021/09/18 07:09:44;;;;;;;9.60;6.60;;;;;;;;;;4940886;29;20195;-89
2021/09/18 07:12:10;;;;;;;7.00;5.18;;;13.40;99.90;;;;;;4935517;29;20324;-88
2021/09/18 07:14:36;;;;;;;8.02;4.78;;;;;;;;;;4940496;29;20240;-87
2021/09/18 07:17:02;;;;;;;5.85;4.47;;;13.40;99.90;;;;;;4953966;29;20187;-88
2021/09/18 07:19:28;;;;;;;9.52;5.03;;;13.40;99.90;;;;;;4944024;29;20212;-90
2021/09/18 07:21:54;;;;;;;7.60;5.03;;;;;;;;;;4928940;29;20212;-88
2021/09/18 07:24:20;;;;;;;6.70;4.93;;;13.30;99.90;;;;;;4948767;29;20433;-87
2021/09/18 07:26:46;;;;;;;6.53;4.93;;;13.40;99.90;;;;;;4927579;29;20728;-91
2021/09/18 07:29:12;;;;;;;7.28;5.22;;;;;;;;;;4935708;29;20615;-91
2021/09/18 07:31:37;;;;;;;6.85;5.28;;;13.40;99.90;;;;;;4919907;29;20227;-89
2021/09/18 07:34:03;;;;;;;12.13;7.07;;;13.40;99.90;;;;;;4930991;29;20188;-89
2021/09/18 07:36:29;;;;;;;7.03;5.50;;;13.40;99.90;;;;;;4924013;29;20215;-89
2021/09/18 07:38:54;;;;;;;7.75;5.80;;;13.40;99.90;;;;;;4909551;29;20196;-90
2021/09/18 07:41:20;;;;;;;9.05;6.55;;;;;;;;;;4931310;29;20199;-89
2021/09/18 07:43:46;;;;;;;9.77;7.00;;;13.50;99.90;;;;;;4916828;29;20326;-90
2021/09/18 07:46:12;;;;;;;8.38;6.63;;;13.40;99.90;;;;;;4947127;29;20245;-91
2021/09/18 07:48:37;;;;;;;10.40;6.97;;;13.50;99.90;;;;;;4941426;29;20195;-91
2021/09/18 07:51:04;;;;;;;10.25;7.05;;;13.50;99.90;;;;;;4947005;29;20195;-90
2021/09/18 07:53:29;;;;;;;8.15;5.95;;;13.40;99.90;;;;;;4947206;29;20176;-92
2021/09/18 07:55:55;;;;;;;13.43;6.40;;;;;;;;;;4942151;29;20184;-92
2021/09/18 07:58:21;;;;;;;8.52;6.80;;;13.30;99.90;;;;;;4942495;29;20653;-92
2021/09/18 08:00:47;;;;;;;7.15;5.60;;;13.20;99.90;;;;;;4926472;29;20219;-93
2021/09/18 08:03:16;;;;;;;7.47;5.40;;;13.10;99.90;;;;;;4938771;29;20188;-93
2021/09/18 08:05:42;;;;;;;5.95;4.72;;;13.20;99.90;;;;;;4942478;29;20191;-93
2021/09/18 08:08:08;;;;;;;7.82;5.45;;;13.10;99.90;;;;;;4940312;29;20208;-92
2021/09/18 08:10:34;;;;;;;9.45;5.45;;;13.10;99.90;;;;;;4940211;29;20192;-92
2021/09/18 08:13:01;;;;;;;8.05;4.78;;;13.10;99.90;;;;;;4924554;29;20239;-92
2021/09/18 08:15:27;;;;;;;6.78;5.13;;;13.00;99.90;;;;;;4933754;29;20203;-88
2021/09/18 08:17:53;;;;;;;8.75;5.72;;;13.10;99.90;;;;;;4926110;29;20188;-91
2021/09/18 08:20:19;;;;;;;7.85;5.57;;;13.00;99.90;;;;;;4944273;29;20260;-90
2021/09/18 08:22:46;;;;;;;6.72;5.00;;;13.00;99.90;;;;;;4921492;29;20188;-89
2021/09/18 08:25:12;;;;;;;8.30;5.63;;;13.10;99.90;;;;;;4923857;29;20613;-88
2021/09/18 08:27:38;;;;;;;5.65;4.82;;;13.20;99.90;;;;;;4923621;29;20324;-89
2021/09/18 08:30:05;;;;;;;7.70;4.70;;;13.20;99.90;;;;;;4923584;29;20219;-87
2021/09/18 08:32:31;;;;;;;5.28;4.38;;;13.20;99.90;;;;;;4942742;29;20188;-87
2021/09/18 08:34:57;;;;;;;6.43;4.07;;;13.20;99.90;;;;;;4942923;29;20242;-90
2021/09/18 08:37:23;;;;;;;6.32;4.65;;;13.20;99.90;;;;;;4943644;29;20200;-88
2021/09/18 08:39:48;;;;;;;7.88;5.32;;;13.30;99.90;;;;;;4940144;29;20583;-88
2021/09/18 08:42:15;;;;;;;5.18;4.25;;;13.30;99.90;;;;;;4925080;29;20194;-88
2021/09/18 08:44:42;;;;;;;8.27;4.25;;;13.30;99.90;;;;;;4941275;29;20188;-87
2021/09/18 08:47:10;;;;;;;4.90;4.35;;;13.40;99.90;;;;;;4921508;29;20535;-87
2021/09/18 08:49:36;;;;;;;5.57;4.47;;;13.40;99.90;;;;;;4939358;29;20246;-88
2021/09/18 08:52:03;;;;;;;5.22;4.40;;;13.40;99.90;;;;;;4938570;29;20195;-89
2021/09/18 08:54:29;;;;;;;5.45;3.95;;;13.40;99.90;;;;;;4939005;29;20222;-87
2021/09/18 08:56:55;;;;;;;5.90;4.30;;;13.40;99.90;;;;;;4943472;29;20196;-89
2021/09/18 08:59:21;;;;;;;5.60;4.40;;;13.50;99.90;;;;;;4943351;29;20230;-87
2021/09/18 09:02:19;;;;;;;7.60;4.22;;;13.50;99.90;;;;;;4937187;29;20192;-87
2021/09/18 09:04:46;;;;;;;5.35;4.55;;;13.50;99.90;;;;;;4942976;29;20192;-88
2021/09/18 09:07:14;;;;;;;8.52;5.13;;;13.50;99.90;;;;;;4931885;29;20194;-89
2021/09/18 09:09:57;;;;;;;8.05;5.93;;;13.50;99.90;;;;;;4925036;29;20204;-87
2021/09/18 09:12:31;;;;;;;8.25;5.50;;;13.50;99.90;;;;;;4938587;29;20294;-88
2021/09/18 09:14:59;;;;;;;16.90;6.05;;;13.40;99.90;;;;;;4940903;29;20184;-88
2021/09/18 09:17:30;;;;;;;7.93;5.57;;;13.40;99.90;;;;;;4937551;29;20184;-88
2021/09/18 09:19:57;;;;;;;8.02;5.75;;;13.30;99.90;;;;;;4938649;29;20216;-88
2021/09/18 09:22:47;;;;;;;12.18;6.70;;;13.20;99.90;;;;;;4939030;29;20638;-91
2021/09/18 09:25:34;;;;;;;10.52;6.05;;;13.20;99.90;;;;;;4928309;29;20616;-88
2021/09/18 09:28:26;;;;;;;10.63;6.10;;;13.10;99.90;;;;;;4943966;29;20251;-89
2021/09/18 09:30:53;;;;;;;8.35;6.10;;;12.80;99.90;;;;;;4944041;29;20195;-88
2021/09/18 09:33:19;;;;;;;12.32;7.45;;;12.90;99.90;;;;;;4946432;29;20191;-88
2021/09/18 09:35:46;;;;;;;8.13;6.45;;;12.90;99.90;;;;;;4940800;29;20184;-89
2021/09/18 09:38:12;;;;;;;10.52;5.63;;;12.90;99.90;;;;;;4943640;29;20188;-86
2021/09/18 09:40:48;;;;;;;6.20;4.95;;;12.90;99.90;;;;;;4922707;29;20215;-87
2021/09/18 09:43:16;;;;;;;6.15;4.95;;;12.90;99.90;;;;;;4942987;29;20183;-88
2021/09/18 09:45:42;;;;;;;6.88;5.15;;;12.90;99.90;;;;;;4943530;29;20203;-89
2021/09/18 09:48:18;;;;;;;8.52;5.55;;;12.90;99.90;;;;;;4941808;29;20196;-89
2021/09/18 09:50:56;;;;;;;5.63;4.25;;;12.90;99.90;;;;;;4947096;29;20202;-90
2021/09/18 09:53:29;;;;;;;7.60;5.00;;;12.80;99.90;;;;;;4946317;29;20235;-90
2021/09/18 09:55:55;;;;;;;5.88;4.65;;;12.80;99.90;;;;;;4944007;29;20180;-88
2021/09/18 09:58:21;;;;;;;6.32;5.25;;;12.90;99.90;;;;;;4943288;29;20287;-90
2021/09/18 10:00:52;;;;;;;8.02;6.20;;;12.60;99.90;;;;;;4945756;29;20222;-88
2021/09/18 10:03:26;;;;;;;10.20;6.60;;;12.80;99.90;;;;;;4945901;29;20180;-87
2021/09/18 10:05:53;;;;;;;6.40;4.63;;;12.90;99.90;;;;;;4941620;29;20198;-89
2021/09/18 10:08:22;;;;;;;4.53;3.50;;;12.90;99.90;;;;;;4948186;29;20196;-89
2021/09/18 10:10:48;;;;;;;4.60;3.50;;;12.90;99.90;;;;;;4941920;29;20283;-91
2021/09/18 10:13:15;;;;;;;6.70;4.95;;;12.90;99.90;;;;;;4919717;29;20246;-89
2021/09/18 10:15:41;;;;;;;3.95;3.28;;;13.00;99.90;;;;;;4938087;29;20199;-91
2021/09/18 10:18:09;;;;;;;10.80;3.70;;;12.90;99.90;;;;;;4939516;29;20222;-87
2021/09/18 10:23:21;;;;;;;4.82;3.70;;;12.90;99.90;;;;;;4935473;29;20641;-88
2021/09/18 10:25:54;;;;;;;4.45;3.25;;;12.80;99.90;;;;;;4935107;29;20190;-88
2021/09/18 10:28:23;;;;;;;5.22;3.80;;;12.80;99.90;;;;;;4936048;29;20183;-86
2021/09/18 10:30:53;;;;;;;4.70;3.67;;;12.80;99.90;;;;;;4935480;29;20442;-88
2021/09/18 10:33:34;;;;;;;6.72;3.78;;;12.80;99.90;;;;;;4935731;29;20198;-88
2021/09/18 10:36:09;;;;;;;7.68;3.53;;;12.80;99.90;;;;;;4938541;29;20180;-84
2021/09/18 10:38:44;;;;;;;6.32;3.78;;;12.80;99.90;;;;;;4948531;29;20183;-90
2021/09/18 10:41:13;;;;;;;5.15;3.55;;;12.80;99.90;;;;;;4940288;29;20215;-87
2021/09/18 10:43:44;;;;;;;4.95;3.30;;;12.80;99.90;;;;;;4926715;29;20184;-87
2021/09/18 10:46:39;;;;;;;4.70;3.80;;;12.70;99.90;;;;;;4935876;29;20559;-88
2021/09/18 10:49:05;;;;;;;7.32;4.68;;;12.80;99.90;;;;;;4929257;29;20181;-88
2021/09/18 10:51:40;;;;;;;4.75;2.90;;;12.70;99.90;;;;;;4935947;29;20203;-88
2021/09/18 10:54:12;;;;;;;5.25;3.08;;;12.70;99.90;;;;;;4937640;29;20179;-86
2021/09/18 10:57:06;;;;;;;5.07;3.20;;;12.70;99.90;;;;;;4933803;29;20560;-86
2021/09/18 10:59:49;;;;;;;4.72;3.17;;;12.70;99.90;;;;;;4933008;29;20732;-85
2021/09/18 11:02:34;;;;;;;3.35;3.05;;;12.60;99.90;;;;;;4934867;29;20211;-87
2021/09/18 11:05:08;;;;;;;3.28;2.78;;;12.70;99.90;;;;;;4924168;29;20188;-87
2021/09/18 11:07:40;;;;;;;4.55;3.00;;;12.70;99.90;;;;;;4933159;29;20645;-88
2021/09/18 11:10:19;;;;;;;4.85;2.30;;;12.80;99.90;;;;;;4935938;29;20211;-88
2021/09/18 11:13:24;;;;;;;4.55;2.42;;;12.80;99.90;;;;;;4936802;29;20591;-89
2021/09/18 11:15:54;;;;;;;3.78;2.53;;;12.80;99.90;;;;;;4930539;29;20653;-88
2021/09/18 11:18:36;;;;;;;3.03;2.70;;;12.80;99.90;;;;;;4936106;29;20649;-89
2021/09/18 11:21:07;;;;;;;3.20;2.65;;;12.80;99.90;;;;;;4934940;29;20294;-89
2021/09/18 11:23:43;;;;;;;3.78;3.03;;;12.80;99.90;;;;;;4935328;29;20713;-88
2021/09/18 11:26:41;;;;;;;3.90;3.03;;;12.80;99.90;;;;;;4934989;29;20193;-89
2021/09/18 11:29:14;;;;;;;46.45;39.55;;;12.80;99.90;;;;;;4935303;29;20187;-88
2021/09/18 11:31:52;;;;;;;7.22;5.88;;;12.90;99.90;;;;;;4934218;29;20191;-87
2021/09/18 11:34:23;;;;;;;3.55;3.20;;;13.00;99.90;;;;;;4935168;29;20528;-88
2021/09/18 11:36:49;;;;;;;5.28;3.13;;;13.00;99.90;;;;;;4930397;29;20629;-89
2021/09/18 11:39:15;;;;;;;2.95;2.67;;;12.90;99.90;;;;;;4932528;29;20752;-89
2021/09/18 11:41:40;;;;;;;3.50;3.20;;;12.90;99.90;;;;;;4932861;29;20212;-88
2021/09/18 11:44:11;;;;;;;5.10;3.40;;;12.90;99.90;;;;;;4936731;29;20219;-89
2021/09/18 11:46:38;;;;;;;6.20;3.83;;;12.80;99.90;;;;;;4938830;29;20192;-88
2021/09/18 11:49:07;;;;;;;5.53;3.60;;;12.70;99.90;;;;;;4940099;29;20259;-89
2021/09/18 11:51:33;;;;;;;10.18;5.43;;;12.70;99.90;;;;;;4936524;29;20298;-90
2021/09/18 11:54:07;;;;;;;5.47;3.63;;;12.70;99.90;;;;;;4943899;29;20183;-90
2021/09/18 11:56:33;;;;;;;5.63;3.90;;;12.70;99.90;;;;;;4945596;29;20200;-91
2021/09/18 11:59:09;;;;;;;6.85;4.07;;;12.80;99.90;;;;;;4940890;29;20200;-91
2021/09/18 12:01:35;;;;;;;5.75;4.13;;;12.80;99.90;;;;;;4946820;29;20183;-93
2021/09/18 12:04:01;;;;;;;5.13;3.30;;;12.70;99.90;;;;;;4941573;29;20199;-92
2021/09/18 12:06:29;;;;;;;7.47;4.22;;;12.70;99.90;;;;;;4941055;29;20190;-91
2021/09/18 12:08:55;;;;;;;5.28;3.92;;;12.70;99.90;;;;;;4940864;29;20271;-94
2021/09/18 12:11:21;;;;;;;6.07;4.00;;;12.50;99.90;;;;;;4931238;29;20266;-90
2021/09/18 12:13:56;;;;;;;7.93;4.50;;;12.60;99.90;;;;;;4923484;29;20235;-91
2021/09/18 12:16:23;;;;;;;6.35;4.28;;;12.60;99.90;;;;;;4923432;29;20179;-92
2021/09/18 12:18:58;;;;;;;7.72;5.07;;;12.50;99.90;;;;;;4939101;29;20312;-89
2021/09/18 12:21:33;;;;;;;11.05;5.50;;;12.40;99.90;;;;;;4942944;29;20791;-91
2021/09/18 12:24:07;;;;;;;8.52;5.30;;;12.40;99.90;;;;;;4947211;29;20270;-89
2021/09/18 12:26:35;;;;;;;11.25;6.65;;;12.00;99.90;;;;;;4959287;29;20179;-89
2021/09/18 12:29:11;;;;;;;8.30;5.68;;;12.20;99.90;;;;;;4942539;29;20263;-93
2021/09/18 12:31:38;;;;;;;7.90;5.57;;;12.10;99.90;;;;;;4953975;29;20183;-90
2021/09/18 12:34:12;;;;;;;6.45;5.13;;;12.10;99.90;;;;;;4959787;29;20195;-92
2021/09/18 12:36:38;;;;;;;5.88;4.72;;;12.10;99.90;;;;;;4959310;29;20239;-94
2021/09/18 12:39:06;;;;;;;5.38;4.53;;;12.00;99.90;;;;;;4951568;29;20187;-90
2021/09/18 12:41:34;;;;;;;6.35;5.00;;;12.00;99.90;;;;;;4936882;29;20196;-93
2021/09/18 12:44:06;;;;;;;7.07;4.75;;;12.00;99.90;;;;;;4933185;29;20203;-92
2021/09/18 12:46:47;;;;;;;5.93;4.60;;;12.00;99.90;;;;;;4945226;29;20180;-90
2021/09/18 12:49:13;;;;;;;8.70;4.32;;;11.90;99.90;;;;;;4934376;29;20180;-87
2021/09/18 12:51:44;;;;;;;9.57;3.90;;;11.90;99.90;;;;;;4936929;29;20195;-92
2021/09/18 12:54:18;;;;;;;5.28;3.55;;;11.90;99.90;;;;;;4942684;29;20188;-90
2021/09/18 12:56:45;;;;;;;4.30;3.50;;;11.80;99.90;;;;;;4946301;29;20199;-87
2021/09/18 12:59:12;;;;;;;4.13;3.30;;;11.80;99.90;;;;;;4948373;29;20180;-89
2021/09/18 13:01:44;;;;;;;4.55;3.08;;;11.70;99.90;;;;;;4949534;29;20194;-89
2021/09/18 13:04:18;;;;;;;5.28;3.33;;;11.90;99.90;;;;;;4947292;29;20188;-89